Time;durP1;ratioP1;P1;durP2;ratioP2;P2;SDS_P1;SDS_P2;PMS_P1;PMS_P2;Temp;Humidity;BMP_temperature;BMP_pressure;BME280_temperature;BME280_humidity;BME280_pressure;Samples;Min_cycle;Max_cycle;Signal;HPM_P1;HPM_P2
2021/10/19 00:00:32;;;;;;;39.13;29.42;;;;;;;8.60;72.45;101146.19;4933127;28;101592;-82
2021/10/19 00:02:58;;;;;;;42.25;30.75;;;;;;;8.58;72.15;101158.44;4967122;28;97290;-81
2021/10/19 00:05:23;;;;;;;41.55;30.42;;;;;;;8.63;72.33;101154.00;4936973;28;97281;-80
2021/10/19 00:07:50;;;;;;;40.47;30.55;;;;;;;8.59;72.35;101161.03;4938060;28;101987;-82
2021/10/19 00:10:16;;;;;;;40.88;29.98;;;;;;;8.45;72.50;101146.41;4936612;28;101314;-82
2021/10/19 00:12:42;;;;;;;39.35;29.25;;;;;;;8.59;72.49;101152.34;4960177;28;97263;-81
2021/10/19 00:15:09;;;;;;;38.63;28.65;;;;;;;8.60;72.28;101161.91;4937222;28;97110;-82
2021/10/19 00:17:42;;;;;;;41.63;29.92;;;;;;;8.57;72.52;101161.94;4936657;28;97710;-80
2021/10/19 00:20:09;;;;;;;44.83;29.45;;;;;;;8.59;71.95;101170.66;4931114;28;101470;-80
2021/10/19 00:22:35;;;;;;;36.47;28.30;;;;;;;8.60;72.07;101164.53;4969619;28;97024;-80
2021/10/19 00:25:04;;;;;;;42.35;30.02;;;;;;;8.60;72.19;101159.28;4955480;28;97002;-80
2021/10/19 00:27:31;;;;;;;38.33;28.83;;;;;;;8.53;72.21;101168.97;4932665;28;101752;-80
2021/10/19 00:29:57;;;;;;;40.20;30.02;;;;;;;8.52;72.65;101168.97;4934628;28;102392;-80
2021/10/19 00:32:22;;;;;;;38.22;29.30;;;;;;;8.49;72.56;101162.03;4936579;28;96725;-81
2021/10/19 00:34:48;;;;;;;40.25;29.08;;;;;;;8.50;72.45;101155.94;4936182;28;97047;-81
2021/10/19 00:37:13;;;;;;;44.45;30.42;;;;;;;8.46;72.42;101142.88;4915847;28;101282;-82
2021/10/19 00:39:39;;;;;;;39.25;28.38;;;;;;;8.41;72.43;101136.84;4963438;28;98167;-80
2021/10/19 00:42:04;;;;;;;36.50;27.55;;;;;;;8.45;72.49;101144.66;4961319;28;96703;-82
2021/10/19 00:44:30;;;;;;;36.90;28.02;;;;;;;8.36;72.61;101136.88;4984161;28;97342;-81
2021/10/19 00:46:58;;;;;;;39.85;28.60;;;;;;;8.39;72.62;101144.72;4918604;28;101428;-81
2021/10/19 00:49:24;;;;;;;39.22;27.60;;;;;;;8.33;72.60;101129.06;4959037;28;101010;-81
2021/10/19 00:51:50;;;;;;;37.13;28.20;;;;;;;8.34;72.61;101129.03;4920299;28;97150;-81
2021/10/19 00:54:17;;;;;;;36.70;27.27;;;;;;;8.35;72.29;101122.06;4952494;28;97965;-82
2021/10/19 00:56:43;;;;;;;38.33;28.95;;;;;;;8.34;72.63;101126.41;4943147;28;98294;-81
2021/10/19 00:59:09;;;;;;;37.53;28.15;;;;;;;8.36;72.25;101119.44;4963775;28;101666;-83
2021/10/19 01:01:35;;;;;;;34.53;26.13;;;;;;;8.39;72.06;101122.03;4932672;28;97280;-82
2021/10/19 01:04:00;;;;;;;36.00;28.00;;;;;;;8.29;72.39;101109.94;4951263;28;97287;-81
2021/10/19 01:06:26;;;;;;;33.05;25.98;;;;;;;8.20;72.38;101120.47;4918736;28;101215;-82
2021/10/19 01:08:52;;;;;;;32.65;25.52;;;;;;;8.19;72.89;101120.50;4979110;28;101494;-80
2021/10/19 01:11:17;;;;;;;37.20;26.02;;;;;;;8.15;72.67;101114.47;4958231;28;96830;-82
2021/10/19 01:13:43;;;;;;;39.70;26.50;;;;;;;8.06;72.68;101102.34;4935583;28;97016;-81
2021/10/19 01:16:11;;;;;;;35.55;26.50;;;;;;;8.05;73.40;101104.97;4927917;28;101385;-82
2021/10/19 01:18:38;;;;;;;41.58;28.00;;;;;;;8.07;72.94;101097.97;4932435;28;101680;-79
2021/10/19 01:21:04;;;;;;;35.03;26.13;;;;;;;8.11;72.64;101091.81;4955577;28;97174;-81
2021/10/19 01:23:30;;;;;;;35.65;26.60;;;;;;;8.16;72.55;101090.03;4968188;28;96962;-81
2021/10/19 01:25:56;;;;;;;35.58;28.02;;;;;;;8.14;72.00;101095.28;4942803;28;101246;-81
2021/10/19 01:28:22;;;;;;;36.47;28.25;;;;;;;8.10;71.90;101090.97;4966945;28;101054;-81
2021/10/19 01:30:49;;;;;;;39.40;27.73;;;;;;;8.11;71.99;101097.06;4960072;28;96763;-81
2021/10/19 01:33:15;;;;;;;34.38;26.13;;;;;;;8.08;72.18;101097.94;4938463;28;96931;-81
2021/10/19 01:35:43;;;;;;;37.67;27.30;;;;;;;8.05;71.90;101086.66;4952517;28;100809;-80
2021/10/19 01:38:14;;;;;;;37.30;27.13;;;;;;;8.03;72.20;101085.81;4949336;28;101521;-80
2021/10/19 01:40:40;;;;;;;35.85;28.85;;;;;;;7.94;72.58;101077.22;4936204;28;96853;-79
2021/10/19 01:43:13;;;;;;;38.25;27.58;;;;;;;7.98;72.42;101085.03;4931915;28;97184;-79
2021/10/19 01:45:40;;;;;;;42.28;28.38;;;;;;;8.07;72.29;101083.16;4933147;28;102328;-79
2021/10/19 01:48:06;;;;;;;39.17;27.70;;;;;;;7.98;72.04;101061.50;4983665;28;98262;-79
2021/10/19 01:50:32;;;;;;;32.20;25.48;;;;;;;8.16;72.17;101071.72;4935190;28;96919;-79
2021/10/19 01:52:58;;;;;;;37.78;28.55;;;;;;;8.02;72.04;101073.63;4951684;28;97519;-79
2021/10/19 01:55:24;;;;;;;34.78;27.80;;;;;;;8.15;71.79;101064.78;4938979;28;101465;-79
2021/10/19 01:57:49;;;;;;;35.97;27.63;;;;;;;8.05;72.14;101057.91;4926623;28;101062;-80
2021/10/19 02:00:15;;;;;;;33.85;25.80;;;;;;;8.10;71.55;101054.34;4934708;28;96793;-80
2021/10/19 02:02:42;;;;;;;35.40;27.48;;;;;;;8.00;71.76;101038.78;4973171;28;96880;-81
2021/10/19 02:05:08;;;;;;;34.42;25.98;;;;;;;7.96;72.48;101052.78;4948787;28;101648;-79
2021/10/19 02:07:34;;;;;;;37.78;26.98;;;;;;;8.03;72.69;101046.59;4934444;28;101395;-79
2021/10/19 02:10:00;;;;;;;33.92;25.20;;;;;;;8.13;72.11;101054.31;4919132;28;96814;-80
2021/10/19 02:12:26;;;;;;;29.70;22.58;;;;;;;8.47;70.75;101042.59;4951464;28;97595;-79
2021/10/19 02:14:52;;;;;;;26.88;22.38;;;;;;;8.35;70.82;101047.06;4919171;28;101355;-80
2021/10/19 02:17:17;;;;;;;31.13;23.95;;;;;;;8.18;71.78;101050.78;4948336;28;101255;-80
2021/10/19 02:19:43;;;;;;;30.33;24.67;;;;;;;8.06;72.41;101041.34;4934832;28;97110;-80
2021/10/19 02:22:09;;;;;;;32.95;24.80;;;;;;;8.01;72.63;101045.75;4965231;28;97165;-81
2021/10/19 02:24:35;;;;;;;32.53;24.52;;;;;;;8.10;72.24;101041.28;4959975;28;101153;-80
2021/10/19 02:27:00;;;;;;;30.33;25.10;;;;;;;8.09;72.18;101041.31;4950162;28;98186;-80
2021/10/19 02:29:26;;;;;;;33.10;24.90;;;;;;;8.03;72.72;101046.59;4966557;28;97341;-80
2021/10/19 02:31:51;;;;;;;30.67;24.58;;;;;;;8.00;72.79;101046.63;4951053;28;97080;-80
2021/10/19 02:34:17;;;;;;;32.05;24.65;;;;;;;7.91;72.70;101047.59;4974942;28;98222;-80
2021/10/19 02:36:43;;;;;;;30.20;22.90;;;;;;;7.98;72.07;101051.03;4967679;28;102015;-80
2021/10/19 02:39:09;;;;;;;33.92;24.20;;;;;;;7.84;72.67;101038.97;4967525;28;96706;-81
2021/10/19 02:41:36;;;;;;;29.92;24.52;;;;;;;7.90;72.69;101046.75;4934694;28;96895;-80
2021/10/19 02:44:03;;;;;;;35.13;25.75;;;;;;;7.89;72.46;101044.16;4934368;28;97819;-80
2021/10/19 02:46:31;;;;;;;30.95;23.77;;;;;;;7.85;72.68;101038.09;4933902;28;101483;-79
2021/10/19 02:48:57;;;;;;;28.63;22.38;;;;;;;7.86;72.46;101037.22;4935517;28;96859;-80
2021/10/19 02:51:23;;;;;;;30.92;24.05;;;;;;;7.88;72.70;101040.69;4933989;28;97204;-80
2021/10/19 02:53:48;;;;;;;35.55;23.20;;;;;;;7.83;72.98;101041.63;4931270;28;101914;-80
2021/10/19 02:56:14;;;;;;;29.70;22.63;;;;;;;8.04;72.13;101041.34;4929803;28;101762;-80
2021/10/19 02:58:39;;;;;;;26.08;22.27;;;;;;;7.92;72.52;101047.59;4951077;28;96924;-80
2021/10/19 03:01:06;;;;;;;32.25;23.10;;;;;;;7.91;72.44;101053.72;4976923;28;96877;-80
2021/10/19 03:03:32;;;;;;;31.55;22.83;;;;;;;7.92;72.50;101058.06;4949380;28;101844;-80
2021/10/19 03:05:57;;;;;;;34.08;23.50;;;;;;;7.79;73.03;101040.75;4984075;28;97909;-80
2021/10/19 03:08:23;;;;;;;31.55;23.13;;;;;;;7.79;72.82;101043.38;4932884;28;97106;-79
2021/10/19 03:10:49;;;;;;;32.95;22.75;;;;;;;7.83;73.42;101037.25;4950790;28;97140;-80
2021/10/19 03:13:15;;;;;;;37.75;23.98;;;;;;;7.87;73.10;101035.47;4945241;28;100861;-80
2021/10/19 03:15:41;;;;;;;28.90;22.80;;;;;;;7.85;72.67;101045.94;4968878;28;101660;-80
2021/10/19 03:18:07;;;;;;;28.15;21.33;;;;;;;7.97;72.75;101044.06;4975236;28;97708;-80
2021/10/19 03:20:32;;;;;;;25.63;21.65;;;;;;;7.93;72.80;101045.84;4965946;28;96954;-80
2021/10/19 03:22:58;;;;;;;29.27;22.52;;;;;;;7.91;72.92;101038.03;4936921;28;97591;-80
2021/10/19 03:25:24;;;;;;;29.35;23.17;;;;;;;7.89;73.28;101037.19;4950121;28;101594;-81
2021/10/19 03:27:50;;;;;;;29.08;21.67;;;;;;;7.91;73.37;101044.97;4933901;28;97094;-80
2021/10/19 03:30:15;;;;;;;28.23;21.42;;;;;;;7.96;73.13;101044.94;4981940;28;96947;-80
2021/10/19 03:32:41;;;;;;;27.05;21.67;;;;;;;7.96;73.10;101051.03;4923047;28;101628;-80
2021/10/19 03:35:07;;;;;;;28.98;22.90;;;;;;;7.94;73.42;101051.06;4946286;28;101568;-80
2021/10/19 03:37:32;;;;;;;26.70;21.30;;;;;;;7.92;73.40;101057.19;4948721;28;96784;-81
2021/10/19 03:39:58;;;;;;;33.28;20.92;;;;;;;7.89;73.46;101052.88;4985676;28;96964;-80
2021/10/19 03:42:24;;;;;;;28.40;21.33;;;;;;;7.86;73.49;101038.97;4936336;28;101176;-80
2021/10/19 03:44:49;;;;;;;26.08;20.83;;;;;;;7.92;73.64;101050.22;4953074;28;98284;-80
2021/10/19 03:47:15;;;;;;;29.48;20.83;;;;;;;7.90;73.11;101043.25;4971492;28;96708;-81
2021/10/19 03:49:40;;;;;;;24.25;20.38;;;;;;;7.85;73.34;101043.34;4970582;28;96638;-79
2021/10/19 03:52:06;;;;;;;27.05;20.50;;;;;;;8.00;73.42;101067.53;4942810;28;102080;-80
2021/10/19 03:54:31;;;;;;;24.23;21.42;;;;;;;7.94;73.49;101061.53;4937455;28;100977;-80
2021/10/19 03:56:57;;;;;;;30.30;21.58;;;;;;;7.92;73.53;101060.66;4936639;28;96787;-80
2021/10/19 03:59:23;;;;;;;25.65;20.02;;;;;;;7.98;73.59;101062.34;4952401;28;96739;-80
2021/10/19 04:01:48;;;;;;;24.08;18.48;;;;;;;8.00;73.35;101063.22;4937090;28;101679;-80
2021/10/19 04:04:14;;;;;;;24.67;19.38;;;;;;;8.01;73.59;101070.16;4936079;28;101677;-81
2021/10/19 04:06:40;;;;;;;27.25;16.77;;;;;;;7.96;73.95;101073.72;4937307;28;96988;-79
2021/10/19 04:09:06;;;;;;;24.08;17.08;;;;;;;7.94;74.11;101076.31;4938049;28;97163;-80
2021/10/19 04:11:31;;;;;;;22.65;16.42;;;;;;;7.96;73.64;101077.19;4935881;28;101419;-80
2021/10/19 04:13:57;;;;;;;24.73;16.35;;;;;;;7.99;74.18;101068.44;4936924;28;101025;-80
2021/10/19 04:16:23;;;;;;;20.02;14.60;;;;;;;8.07;73.44;101064.84;4937075;28;96970;-80
2021/10/19 04:18:48;;;;;;;24.73;15.60;;;;;;;8.12;73.51;101051.72;4970511;28;97107;-81
2021/10/19 04:21:14;;;;;;;23.45;14.98;;;;;;;8.17;73.27;101052.50;4935729;28;100494;-81
2021/10/19 04:23:39;;;;;;;19.23;14.13;;;;;;;8.16;72.50;101048.19;4969242;28;98603;-81
2021/10/19 04:26:05;;;;;;;22.20;15.52;;;;;;;8.13;73.31;101051.69;4941471;28;97135;-80
2021/10/19 04:28:30;;;;;;;19.52;15.27;;;;;;;8.15;72.96;101054.31;4956404;28;98488;-80
2021/10/19 04:30:56;;;;;;;21.67;15.77;;;;;;;8.18;72.45;101027.25;4923015;28;101228;-80
2021/10/19 04:33:21;;;;;;;19.70;14.98;;;;;;;8.32;71.96;101044.50;4955998;28;101441;-80
2021/10/19 04:35:47;;;;;;;19.70;14.40;;;;;;;8.31;71.85;101045.34;4944883;28;97069;-80
2021/10/19 04:38:14;;;;;;;21.95;14.68;;;;;;;8.22;72.29;101045.47;4952811;28;97099;-81
2021/10/19 04:40:40;;;;;;;19.58;13.77;;;;;;;8.37;71.66;101045.28;4960374;28;101266;-81
2021/10/19 04:43:05;;;;;;;21.58;14.43;;;;;;;8.26;71.80;101049.81;4967017;28;101023;-80
2021/10/19 04:45:31;;;;;;;24.42;14.80;;;;;;;8.20;72.55;101046.38;4952064;28;96651;-80
2021/10/19 04:47:57;;;;;;;24.23;15.07;;;;;;;8.22;72.86;101047.25;4952568;28;96961;-80
2021/10/19 04:50:23;;;;;;;16.42;13.65;;;;;;;8.28;72.13;101047.16;4951252;28;101647;-81
2021/10/19 04:52:49;;;;;;;24.73;15.27;;;;;;;8.50;71.24;101050.41;4932650;28;101898;-80
2021/10/19 04:55:15;;;;;;;22.25;14.55;;;;;;;8.26;72.57;101041.97;4938969;28;96797;-82
2021/10/19 04:57:40;;;;;;;19.48;15.07;;;;;;;8.30;71.92;101038.41;4958579;28;97123;-80
2021/10/19 05:00:06;;;;;;;22.50;15.18;;;;;;;8.30;71.87;101025.34;4941439;28;101510;-80
2021/10/19 05:02:32;;;;;;;22.88;15.05;;;;;;;8.26;71.19;101026.28;4959721;28;101819;-80
2021/10/19 05:04:57;;;;;;;18.58;14.65;;;;;;;8.30;72.02;101032.31;4957873;28;96871;-81
2021/10/19 05:07:23;;;;;;;23.50;14.10;;;;;;;8.27;71.71;101032.38;4953969;28;97251;-80
2021/10/19 05:09:49;;;;;;;22.40;14.05;;;;;;;8.25;72.15;101031.50;4931410;28;97328;-80
2021/10/19 05:12:15;;;;;;;20.60;14.27;;;;;;;8.29;72.17;101014.88;4967303;28;97920;-80
2021/10/19 05:14:40;;;;;;;20.10;13.90;;;;;;;8.31;71.95;101008.75;4943853;28;97123;-80
2021/10/19 05:17:07;;;;;;;20.58;13.40;;;;;;;8.37;70.95;101007.78;4966622;28;96913;-77
2021/10/19 05:19:32;;;;;;;22.00;13.65;;;;;;;8.31;71.15;100994.81;4943933;28;97458;-80
2021/10/19 05:21:58;;;;;;;20.88;13.38;;;;;;;8.35;71.22;100999.13;4933061;28;97899;-75
2021/10/19 05:24:23;;;;;;;39.50;22.15;;;;;;;8.58;70.63;100989.22;4933578;28;97330;-77
2021/10/19 05:26:49;;;;;;;31.23;18.90;;;;;;;8.37;71.19;100992.09;4949090;28;97159;-79
2021/10/19 05:29:18;;;;;;;23.55;15.85;;;;;;;8.45;70.63;100989.41;4947691;28;98225;-76
2021/10/19 05:31:44;;;;;;;22.67;15.70;;;;;;;8.52;69.94;100991.94;4947142;28;97606;-76
2021/10/19 05:34:09;;;;;;;25.77;16.38;;;;;;;8.62;70.26;100992.66;4963027;28;97260;-77
2021/10/19 05:36:36;;;;;;;24.15;16.35;;;;;;;8.52;70.28;100972.72;4948136;28;97277;-76
2021/10/19 05:39:01;;;;;;;20.50;13.02;;;;;;;8.42;70.79;100977.22;4981082;28;97472;-80
2021/10/19 05:41:27;;;;;;;23.25;14.18;;;;;;;8.42;70.86;100972.00;4930260;28;101066;-84
2021/10/19 05:43:52;;;;;;;18.90;12.82;;;;;;;8.58;70.04;100978.75;4955201;28;97093;-85
2021/10/19 05:46:18;;;;;;;16.42;12.88;;;;;;;8.61;69.96;100980.47;4931956;28;97462;-83
2021/10/19 05:48:43;;;;;;;18.50;12.55;;;;;;;8.56;70.18;100997.97;4963684;28;98506;-84
2021/10/19 05:51:09;;;;;;;16.73;11.40;;;;;;;8.63;70.48;101007.44;4933577;28;101713;-83
2021/10/19 05:53:34;;;;;;;20.88;11.20;;;;;;;8.63;70.27;101009.22;4948882;28;96759;-85
2021/10/19 05:56:00;;;;;;;14.88;10.77;;;;;;;8.84;69.18;100998.38;4934039;28;98312;-84
2021/10/19 05:58:25;;;;;;;15.68;10.40;;;;;;;8.91;68.72;101002.66;4948442;28;98179;-85
2021/10/19 06:00:51;;;;;;;12.23;10.38;;;;;;;8.98;68.50;101001.66;4963767;28;101056;-84
2021/10/19 06:03:17;;;;;;;23.30;11.52;;;;;;;9.01;68.67;100996.34;4951618;28;97246;-81
2021/10/19 06:05:42;;;;;;;15.18;10.85;;;;;;;9.11;68.51;100999.69;4948237;28;96824;-85
2021/10/19 06:08:08;;;;;;;15.65;10.65;;;;;;;9.09;68.20;100996.25;4930190;28;101360;-82
2021/10/19 06:10:34;;;;;;;16.65;11.13;;;;;;;9.25;67.63;101013.44;4969051;28;98118;-84
2021/10/19 06:12:59;;;;;;;15.00;10.27;;;;;;;9.23;67.84;101009.97;4971691;28;97401;-84
2021/10/19 06:15:26;;;;;;;13.00;9.98;;;;;;;9.37;67.34;101011.50;4930145;28;97446;-84
2021/10/19 06:17:53;;;;;;;14.23;10.00;;;;;;;9.64;66.97;101002.22;4931274;28;101718;-85
2021/10/19 06:20:20;;;;;;;13.60;10.98;;;;;;;9.77;66.26;101003.69;4973207;28;98609;-84
2021/10/19 06:22:45;;;;;;;13.73;9.93;;;;;;;9.74;66.63;101012.53;4934725;28;97276;-85
2021/10/19 06:25:11;;;;;;;14.60;11.13;;;;;;;9.79;66.44;101003.69;4959463;28;96757;-84
2021/10/19 06:27:37;;;;;;;17.73;11.18;;;;;;;9.96;65.59;100999.81;4949560;28;101752;-85
2021/10/19 06:30:03;;;;;;;22.95;12.23;;;;;;;10.27;64.83;101000.94;4952071;28;99810;-85
2021/10/19 06:32:29;;;;;;;22.40;13.80;;;;;;;10.47;64.02;100998.78;4930674;28;96900;-84
2021/10/19 06:34:54;;;;;;;21.30;13.00;;;;;;;10.31;64.89;101002.63;4963460;28;96889;-85
2021/10/19 06:37:20;;;;;;;30.38;17.10;;;;;;;10.30;64.43;101006.16;4941083;28;98093;-85
2021/10/19 06:39:45;;;;;;;27.17;16.33;;;;;;;10.42;64.35;101001.50;4957689;28;98427;-85
2021/10/19 06:42:11;;;;;;;22.65;13.57;;;;;;;10.59;63.73;101006.38;4950983;28;96685;-83
2021/10/19 06:44:37;;;;;;;21.10;12.90;;;;;;;10.68;63.86;101018.41;4922311;28;97601;-84
2021/10/19 06:47:02;;;;;;;19.58;13.43;;;;;;;10.79;62.83;101000.66;4927113;28;98161;-84
2021/10/19 06:49:28;;;;;;;23.02;15.45;;;;;;;11.00;62.77;101006.28;4960276;28;99708;-85
2021/10/19 06:51:53;;;;;;;16.52;12.90;;;;;;;11.08;62.52;101002.56;4955489;28;96935;-82
2021/10/19 06:54:19;;;;;;;15.05;12.85;;;;;;;11.14;62.24;101009.41;4950380;28;96696;-86
2021/10/19 06:56:45;;;;;;;12.10;10.05;;;;;;;11.33;62.20;101007.16;4946029;28;97979;-84
2021/10/19 06:59:10;;;;;;;16.67;10.02;;;;;;;11.65;61.41;101006.28;4961440;28;101242;-84
2021/10/19 07:01:36;;;;;;;11.98;10.27;;;;;;;12.04;60.95;101008.72;4949958;28;96702;-84
2021/10/19 07:04:01;;;;;;;12.55;9.88;;;;;;;12.54;59.53;100997.59;4964781;28;96900;-84
2021/10/19 07:06:27;;;;;;;15.55;9.80;;;;;;;13.23;58.79;101016.41;4963041;28;101111;-85
2021/10/19 07:08:53;;;;;;;15.60;11.73;;;;;;;13.71;57.13;101023.56;4946281;28;100356;-83
2021/10/19 07:11:20;;;;;;;13.75;9.13;;;;;;;13.64;55.55;101009.72;4981312;28;96842;-84
2021/10/19 07:13:45;;;;;;;12.10;9.38;;;;;;;13.74;55.86;101016.38;4945870;28;96865;-85
2021/10/19 07:16:11;;;;;;;14.40;9.70;;;;;;;13.80;55.01;101015.31;4949680;28;101681;-84
2021/10/19 07:18:36;;;;;;;16.55;8.88;;;;;;;13.92;54.54;101025.41;4981167;28;98467;-84
2021/10/19 07:21:02;;;;;;;12.18;8.55;;;;;;;13.97;55.07;101027.91;4982535;28;97220;-86
2021/10/19 07:23:28;;;;;;;9.70;8.70;;;;;;;13.72;55.11;101028.75;4944197;28;97192;-84
2021/10/19 07:25:53;;;;;;;15.07;8.82;;;;;;;13.43;55.81;101028.94;4965561;28;100801;-81
2021/10/19 07:28:19;;;;;;;9.70;8.55;;;;;;;13.25;56.23;101033.03;4970887;28;101859;-83
2021/10/19 07:30:45;;;;;;;11.23;7.90;;;;;;;13.24;56.86;101028.69;4954867;28;99277;-89
2021/10/19 07:33:12;;;;;;;10.02;8.00;;;;;;;13.34;55.82;101028.34;4943844;28;96714;-79
2021/10/19 07:35:38;;;;;;;11.02;8.68;;;;;;;13.57;55.53;101016.13;4990141;28;97462;-79
2021/10/19 07:38:04;;;;;;;9.93;7.70;;;;;;;13.72;55.00;101012.94;4964412;28;100888;-81
2021/10/19 07:40:30;;;;;;;11.52;8.18;;;;;;;13.68;55.17;101016.63;4973967;28;97933;-81
2021/10/19 07:42:57;;;;;;;10.07;8.25;;;;;;;13.69;55.36;101012.19;4961388;28;98546;-85
2021/10/19 07:45:23;;;;;;;11.90;8.57;;;;;;;13.71;55.97;101008.59;4942245;28;99249;-82
2021/10/19 07:47:49;;;;;;;11.80;8.30;;;;;;;13.61;55.93;100995.78;4954164;28;102094;-82
2021/10/19 07:50:20;;;;;;;11.55;8.85;;;;;;;13.56;56.24;101006.50;4946464;28;97264;-81
2021/10/19 07:52:47;;;;;;;13.55;10.80;;;;;;;13.57;55.70;100997.66;4937726;28;97206;-81
2021/10/19 07:55:13;;;;;;;15.10;10.57;;;;;;;13.72;55.40;100991.84;4941371;28;97686;-81
2021/10/19 07:57:46;;;;;;;17.77;11.02;;;;;;;13.76;55.41;100988.19;4962107;28;97312;-82
2021/10/19 08:00:16;;;;;;;10.60;9.00;;;;;;;13.92;55.77;100984.97;4961758;28;96803;-83
2021/10/19 08:02:42;;;;;;;11.73;9.00;;;;;;;14.41;53.73;100983.09;4923995;28;96866;-82
2021/10/19 08:05:12;;;;;;;13.00;9.27;;;;;;;15.45;52.00;100986.72;4936719;28;101435;-91
2021/10/19 08:07:39;;;;;;;10.18;9.10;;;;;;;16.36;49.42;100980.81;4967819;28;98061;-87
2021/10/19 08:10:06;;;;;;;12.75;8.02;;;;;;;16.32;49.40;100994.28;4963467;28;96704;-83
2021/10/19 08:12:32;;;;;;;12.07;9.40;;;;;;;16.06;49.60;100988.44;4952806;28;97139;-83
2021/10/19 08:15:01;;;;;;;13.32;9.27;;;;;;;16.92;48.62;100987.81;4961974;28;101921;-83
2021/10/19 08:17:27;;;;;;;14.65;10.68;;;;;;;17.71;46.33;100984.66;4953816;28;101253;-82
2021/10/19 08:19:58;;;;;;;9.15;7.85;;;;;;;18.51;44.63;100975.00;4923764;28;96904;-83
2021/10/19 08:22:24;;;;;;;9.05;8.15;;;;;;;18.99;43.42;100973.13;4962991;28;97561;-83
2021/10/19 08:24:50;;;;;;;11.30;9.40;;;;;;;18.97;43.83;100961.75;4950376;28;98018;-83
2021/10/19 08:27:15;;;;;;;13.73;8.55;;;;;;;19.02;42.97;100964.97;4960081;28;101319;-83
2021/10/19 08:29:41;;;;;;;11.13;8.40;;;;;;;19.05;43.39;100966.59;4949400;28;96865;-83
2021/10/19 08:32:06;;;;;;;13.65;10.20;;;;;;;18.99;43.33;100965.13;4967743;28;96935;-85
2021/10/19 08:34:32;;;;;;;12.05;8.50;;;;;;;18.51;44.27;100967.88;4969818;28;100096;-83
2021/10/19 08:36:58;;;;;;;7.68;6.60;;;;;;;17.83;45.33;100968.13;4967102;28;100984;-83
2021/10/19 08:39:23;;;;;;;13.48;8.07;;;;;;;17.88;45.58;100966.03;4966234;28;96783;-85
2021/10/19 08:41:49;;;;;;;9.02;8.13;;;;;;;18.05;45.83;100965.13;4953297;28;97086;-84
2021/10/19 08:44:14;;;;;;;9.65;7.05;;;;;;;17.76;45.13;100968.47;4936112;28;101708;-83
2021/10/19 08:46:40;;;;;;;8.13;6.32;;;;;;;17.41;46.54;100965.91;4951645;28;101337;-86
2021/10/19 08:49:06;;;;;;;8.60;7.13;;;;;;;17.23;47.04;100964.22;4967058;28;96885;-83
2021/10/19 08:51:31;;;;;;;7.55;6.82;;;;;;;17.22;47.48;100962.47;4943598;28;97327;-84
2021/10/19 08:53:57;;;;;;;7.20;6.50;;;;;;;17.16;47.37;100947.72;4952048;28;98099;-83
2021/10/19 08:56:23;;;;;;;14.68;7.43;;;;;;;17.06;47.29;100960.63;4957407;28;101079;-86
2021/10/19 08:59:07;;;;;;;10.23;8.63;;;;;;;17.16;47.26;100943.31;4944545;28;98031;-83
2021/10/19 09:01:40;;;;;;;8.50;7.70;;;;;;;17.51;46.67;100953.88;4939731;28;97023;-84
2021/10/19 09:04:11;;;;;;;12.00;7.30;;;;;;;18.70;43.67;100943.75;4950326;28;101460;-84
2021/10/19 09:06:39;;;;;;;6.63;6.13;;;;;;;19.98;41.01;100963.56;4956079;28;101755;-83
2021/10/19 09:09:24;;;;;;;7.10;6.13;;;;;;;21.32;38.70;100958.31;4924669;28;97195;-83
2021/10/19 09:11:54;;;;;;;7.32;6.63;;;;;;;21.42;38.10;100948.72;4967033;28;97660;-84
2021/10/19 09:14:28;;;;;;;6.25;5.53;;;;;;;21.50;38.08;100956.22;4937241;28;101690;-86
2021/10/19 09:16:56;;;;;;;6.40;5.82;;;;;;;23.49;35.54;100949.50;4944669;28;101403;-83
2021/10/19 09:19:23;;;;;;;6.85;6.35;;;;;;;24.64;33.23;100942.13;4966697;28;96827;-86
2021/10/19 09:21:54;;;;;;;6.90;6.25;;;;;;;25.40;32.44;100947.34;4945075;28;97154;-82
2021/10/19 09:24:22;;;;;;;8.57;6.88;;;;;;;26.16;30.61;100934.38;4956283;28;98068;-85
2021/10/19 09:26:58;;;;;;;7.93;6.47;;;;;;;26.31;30.63;100937.50;4979486;28;98537;-83
2021/10/19 09:29:26;;;;;;;7.57;6.85;;;;;;;26.35;30.06;100936.22;4955231;28;97388;-89
2021/10/19 09:32:03;;;;;;;6.78;6.28;;;;;;;26.58;31.09;100923.38;4958957;28;97439;-89
2021/10/19 09:34:31;;;;;;;9.45;7.78;;;;;;;26.83;30.34;100919.28;4945997;28;101013;-91
2021/10/19 09:36:57;;;;;;;7.35;6.38;;;;;;;26.95;29.69;100911.91;4972922;28;98486;-91
2021/10/19 09:39:39;;;;;;;7.88;7.07;;;;;;;26.13;29.79;100900.53;4952447;28;97177;-91
2021/10/19 09:42:20;;;;;;;6.30;5.80;;;;;;;26.12;30.73;100912.28;4942167;28;97118;-90
2021/10/19 09:45:00;;;;;;;7.82;6.40;;;;;;;25.06;30.83;100917.97;4964449;28;100480;-92
2021/10/19 09:47:26;;;;;;;7.93;5.93;;;;;;;23.80;32.65;100916.81;4951204;28;101292;-92
2021/10/19 09:49:53;;;;;;;5.78;5.35;;;;;;;23.37;32.79;100917.50;4998027;28;96833;-92
2021/10/19 09:52:19;;;;;;;6.03;5.40;;;;;;;22.91;33.84;100911.16;4978018;28;97250;-93
2021/10/19 09:54:45;;;;;;;5.97;5.47;;;;;;;22.88;34.56;100913.22;4940401;28;101198;-82
2021/10/19 09:57:11;;;;;;;6.60;6.00;;;;;;;23.19;34.16;100907.25;4956348;28;100639;-83
2021/10/19 09:59:37;;;;;;;6.57;5.97;;;;;;;23.18;33.96;100910.88;4965279;28;97085;-86
2021/10/19 10:02:03;;;;;;;6.68;5.78;;;;;;;22.91;33.85;100911.16;4971427;28;97053;-86
2021/10/19 10:04:28;;;;;;;6.65;6.05;;;;;;;22.43;34.04;100905.88;4955718;28;97613;-93
2021/10/19 10:06:56;;;;;;;9.73;5.68;;;;;;;22.17;35.13;100902.47;4965275;28;100935;-87
2021/10/19 10:09:22;;;;;;;6.25;5.75;;;;;;;22.21;35.10;100905.75;4963294;28;97003;-86
2021/10/19 10:11:48;;;;;;;6.70;5.70;;;;;;;22.25;34.77;100907.22;4955306;28;97396;-85
2021/10/19 10:14:14;;;;;;;6.28;5.70;;;;;;;22.11;35.77;100900.22;4948615;28;101784;-86
2021/10/19 10:16:49;;;;;;;7.60;5.38;;;;;;;22.05;35.47;100905.97;4973503;28;101387;-86
2021/10/19 10:19:20;;;;;;;6.80;6.20;;;;;;;22.17;35.54;100886.41;4936432;28;96772;-85
2021/10/19 10:21:51;;;;;;;6.35;5.85;;;;;;;22.03;35.72;100895.41;4963627;28;97251;-85
2021/10/19 10:24:31;;;;;;;6.75;6.15;;;;;;;21.17;36.68;100887.28;4957350;28;101311;-87
2021/10/19 10:27:12;;;;;;;6.35;5.50;;;;;;;20.76;37.62;100885.63;4965394;28;101776;-83
2021/10/19 10:29:39;;;;;;;7.68;5.93;;;;;;;20.71;37.92;100885.09;4938226;28;96857;-85
2021/10/19 10:32:06;;;;;;;11.00;6.15;;;;;;;20.75;37.76;100891.94;4932106;28;97251;-85
2021/10/19 10:34:32;;;;;;;6.68;6.00;;;;;;;20.32;38.17;100882.28;4959363;28;101142;-85
2021/10/19 10:37:11;;;;;;;6.38;5.78;;;;;;;19.98;38.81;100875.63;4967015;28;101485;-84
2021/10/19 10:39:45;;;;;;;7.72;6.10;;;;;;;20.01;39.35;100879.91;4943768;28;97748;-86
2021/10/19 10:42:13;;;;;;;6.68;6.07;;;;;;;19.85;39.11;100869.41;4958396;28;97312;-87
2021/10/19 10:44:41;;;;;;;7.78;6.38;;;;;;;19.75;39.72;100870.91;4980692;28;101227;-87
2021/10/19 10:47:08;;;;;;;6.80;6.20;;;;;;;19.49;39.80;100867.22;4956364;28;101997;-88
2021/10/19 10:49:35;;;;;;;6.57;5.95;;;;;;;19.13;40.14;100858.75;4942332;28;96901;-87
2021/10/19 10:52:02;;;;;;;6.97;5.70;;;;;;;18.88;40.98;100853.19;4955541;28;96899;-87
2021/10/19 10:54:28;;;;;;;7.53;6.75;;;;;;;18.71;41.74;100838.25;4923741;28;97392;-85
2021/10/19 10:56:54;;;;;;;6.63;6.03;;;;;;;18.66;42.16;100841.16;4938007;28;100171;-84
2021/10/19 10:59:28;;;;;;;8.90;6.20;;;;;;;18.47;42.49;100829.91;4950252;28;97522;-91
2021/10/19 11:02:10;;;;;;;7.22;6.15;;;;;;;18.45;42.71;100831.81;4956462;28;97927;-87
2021/10/19 11:04:51;;;;;;;7.00;6.40;;;;;;;18.58;42.94;100837.25;4950349;28;98377;-89
2021/10/19 11:07:29;;;;;;;6.38;5.78;;;;;;;18.64;42.26;100837.75;4929530;28;100706;-95
2021/10/19 11:09:55;;;;;;;6.53;5.88;;;;;;;18.26;42.60;100832.03;4961173;28;97564;-85
2021/10/19 11:12:21;;;;;;;7.47;5.70;;;;;;;18.18;43.47;100828.94;4939039;28;97314;-86
2021/10/19 11:14:47;;;;;;;8.43;6.07;;;;;;;18.31;43.20;100827.31;4936317;28;99933;-85